Terminal Aerodrome Forecast
Issued by NWS

Home | Current Version | Previous Version | Text Only | Print | Product List | Glossary Off
Versions: 1 2 3 4 5 6 7 8 9 10 11 12 13 14 15 16

000
FTUS43 KOAX 130500
TAFCDR
TAF
KCDR 130523Z 1306/1406 03017G24KT 5SM -SHRA OVC025
     FM130800 03015G25KT 3SM -RASN BR OVC015
     FM131100 01015G25KT 1SM -SN OVC008
     FM131900 35015G25KT 5SM -SHSN SCT008 BKN050
     FM140000 35014KT P6SM BKN050=

USA.gov is the U.S. government's official web portal to all federal, state and local government web resources and services.